Time;durP1;ratioP1;P1;durP2;ratioP2;P2;SDS_P1;SDS_P2;PMS_P1;PMS_P2;Temp;Humidity;BMP_temperature;BMP_pressure;BME280_temperature;BME280_humidity;BME280_pressure;Samples;Min_cycle;Max_cycle;Signal;HPM_P1;HPM_P2
2023/09/18 00:03:03;;;;;;;;;;;;;;;18.51;100.00;100147.71;181128;1265;58129;-60
2023/09/18 00:07:05;;;;;;;;;;;;;;;18.54;100.00;100146.64;181154;1265;43544;-59
2023/09/18 00:11:34;;;;;;;;;;;;;;;18.57;100.00;100142.30;181105;1266;43502;-59
2023/09/18 00:15:37;;;;;;;;;;;;;;;18.62;100.00;100137.98;181131;1266;42816;-59
2023/09/18 00:19:39;;;;;;;;;;;;;;;18.64;100.00;100134.53;181134;1265;42822;-59
2023/09/18 00:23:40;;;;;;;;;;;;;;;18.64;100.00;100134.04;181083;1268;58310;-59
2023/09/18 00:27:43;;;;;;;;;;;;;;;18.64;100.00;100124.75;181109;1266;42929;-59
2023/09/18 00:31:44;;;;;;;;;;;;;;;18.66;100.00;100127.89;181111;1266;42832;-59
2023/09/18 00:35:47;;;;;;;;;;;;;;;18.66;100.00;100122.38;181111;1265;43470;-60
2023/09/18 00:40:19;;;;;;;;;;;;;;;18.65;100.00;100113.83;181132;1265;42920;-59
2023/09/18 00:44:21;;;;;;;;;;;;;;;18.55;100.00;100108.00;181108;1266;56968;-59
2023/09/18 00:48:28;;;;;;;;;;;;;;;18.51;100.00;100109.84;181119;1267;42805;-59
2023/09/18 00:52:29;;;;;;;;;;;;;;;18.49;100.00;100112.75;181110;1269;43232;-60
2023/09/18 00:56:48;;;;;;;;;;;;;;;18.45;100.00;100112.67;181098;1266;42916;-59
2023/09/18 01:00:51;;;;;;;;;;;;;;;18.37;100.00;100106.91;181104;1265;42853;-60
2023/09/18 01:04:53;;;;;;;;;;;;;;;18.31;100.00;100094.35;181116;1265;58006;-59
2023/09/18 01:08:54;;;;;;;;;;;;;;;18.20;100.00;100085.89;181107;1265;42908;-59
2023/09/18 01:13:00;;;;;;;;;;;;;;;18.10;100.00;100081.84;181189;1265;43883;-59
2023/09/18 01:21:57;;;;;;;;;;;;;;;17.97;100.00;100072.91;181090;1267;42771;-59
2023/09/18 01:25:59;;;;;;;;;;;;;;;17.90;100.00;100073.20;181096;1267;57843;-59
2023/09/18 01:30:00;;;;;;;;;;;;;;;17.88;100.00;100078.70;181126;1267;42849;-59
2023/09/18 01:34:02;;;;;;;;;;;;;;;17.82;100.00;100076.86;181165;1266;43398;-59
2023/09/18 01:38:04;;;;;;;;;;;;;;;17.74;100.00;100075.77;181111;1266;43467;-59
2023/09/18 01:42:09;;;;;;;;;;;;;;;17.65;100.00;100075.95;181182;1264;43509;-59
2023/09/18 01:46:11;;;;;;;;;;;;;;;17.62;100.00;100065.45;181106;1267;58471;-59
2023/09/18 01:50:13;;;;;;;;;;;;;;;17.59;100.00;100061.55;181070;1267;43365;-59
2023/09/18 01:54:14;;;;;;;;;;;;;;;17.57;100.00;100070.89;181101;1267;43227;-59
2023/09/18 01:58:16;;;;;;;;;;;;;;;17.53;100.00;100067.52;181127;1267;42916;-59
2023/09/18 02:02:18;;;;;;;;;;;;;;;17.56;100.00;100063.88;181138;1267;43588;-59
2023/09/18 02:06:40;;;;;;;;;;;;;;;17.53;100.00;100060.54;181152;1264;58120;-59
2023/09/18 02:10:44;;;;;;;;;;;;;;;17.53;100.00;100056.50;181089;1268;43158;-59
2023/09/18 02:14:46;;;;;;;;;;;;;;;17.42;100.00;100060.29;181116;1267;43488;-59
2023/09/18 02:18:47;;;;;;;;;;;;;;;17.39;100.00;100058.02;181091;1266;42898;-59
2023/09/18 02:27:59;;;;;;;;;;;;;;;17.33;100.00;100049.59;181121;1267;58100;-60
2023/09/18 02:32:02;;;;;;;;;;;;;;;17.36;100.00;100044.55;181075;1267;43006;-59
2023/09/18 02:36:05;;;;;;;;;;;;;;;17.38;100.00;100045.09;181116;1268;43491;-59
2023/09/18 02:40:07;;;;;;;;;;;;;;;17.38;100.00;100040.11;181144;1264;43523;-60
2023/09/18 02:44:09;;;;;;;;;;;;;;;17.32;100.00;100033.77;181126;1267;42848;-59
2023/09/18 02:48:11;;;;;;;;;;;;;;;17.25;100.00;100030.36;181096;1267;56960;-59
2023/09/18 02:52:12;;;;;;;;;;;;;;;17.21;100.00;100031.06;181099;1267;43555;-59
2023/09/18 02:56:33;;;;;;;;;;;;;;;17.18;100.00;100023.92;181065;1267;43231;-59
2023/09/18 03:00:35;;;;;;;;;;;;;;;17.24;100.00;100019.45;181091;1269;43474;-59
2023/09/18 03:04:45;;;;;;;;;;;;;;;17.28;100.00;100018.95;181113;1267;42819;-59
2023/09/18 03:08:48;;;;;;;;;;;;;;;17.25;100.00;100023.81;181087;1266;57547;-60
2023/09/18 03:12:49;;;;;;;;;;;;;;;17.20;100.00;100019.18;181101;1267;42930;-59
2023/09/18 03:16:54;;;;;;;;;;;;;;;17.19;100.00;100012.86;181067;1267;42892;-58
2023/09/18 03:20:56;;;;;;;;;;;;;;;17.19;100.00;100010.01;181042;1267;43533;-60
2023/09/18 03:25:02;;;;;;;;;;;;;;;17.22;100.00;100005.29;181092;1267;42787;-58
2023/09/18 03:29:04;;;;;;;;;;;;;;;17.24;100.00;100001.07;181109;1267;57937;-59
2023/09/18 03:33:11;;;;;;;;;;;;;;;17.25;100.00;99994.38;181065;1265;43449;-59
2023/09/18 03:37:13;;;;;;;;;;;;;;;17.22;100.00;99993.95;181147;1266;42811;-58
2023/09/18 03:41:15;;;;;;;;;;;;;;;17.22;100.00;99992.83;181070;1266;42883;-59
2023/09/18 03:45:18;;;;;;;;;;;;;;;17.16;100.00;99986.34;181073;1267;43412;-57
2023/09/18 03:49:20;;;;;;;;;;;;;;;17.16;100.00;99983.98;181038;1266;58130;-57
2023/09/18 03:53:21;;;;;;;;;;;;;;;17.12;100.00;99985.63;181063;1267;43097;-57
2023/09/18 03:57:25;;;;;;;;;;;;;;;17.15;100.00;99979.80;181104;1266;42817;-56
2023/09/18 04:01:27;;;;;;;;;;;;;;;17.18;100.00;99981.83;181086;1267;42800;-57
2023/09/18 04:05:29;;;;;;;;;;;;;;;17.20;100.00;99977.59;181075;1266;42815;-57
2023/09/18 04:09:30;;;;;;;;;;;;;;;17.19;100.00;99979.90;181060;1267;58080;-56
2023/09/18 04:13:33;;;;;;;;;;;;;;;17.16;100.00;99964.80;181126;1266;43444;-58
2023/09/18 04:17:35;;;;;;;;;;;;;;;17.15;100.00;99961.83;181078;1266;43550;-59
2023/09/18 04:21:37;;;;;;;;;;;;;;;17.15;100.00;99962.96;181039;1266;42804;-59
2023/09/18 04:25:39;;;;;;;;;;;;;;;17.15;100.00;99955.64;181087;1265;43548;-57
2023/09/18 04:29:41;;;;;;;;;;;;;;;17.13;100.00;99950.82;181103;1266;58063;-58
2023/09/18 04:33:42;;;;;;;;;;;;;;;17.16;100.00;99950.99;181121;1265;42892;-59
2023/09/18 04:37:44;;;;;;;;;;;;;;;17.18;100.00;99945.38;181092;1265;42796;-59
2023/09/18 04:41:46;;;;;;;;;;;;;;;17.19;100.00;99939.40;181089;1265;42856;-57
2023/09/18 04:46:15;;;;;;;;;;;;;;;17.21;100.00;99939.39;181076;1266;42852;-57
2023/09/18 04:50:17;;;;;;;;;;;;;;;17.20;100.00;99940.37;181068;1266;58306;-57
2023/09/18 04:54:20;;;;;;;;;;;;;;;17.26;100.00;99936.05;181042;1265;43619;-57
2023/09/18 04:58:49;;;;;;;;;;;;;;;17.56;100.00;99932.81;181145;1265;42799;-57
2023/09/18 05:02:51;;;;;;;;;;;;;;;17.99;100.00;99922.92;181100;1266;43054;-57
2023/09/18 05:06:53;;;;;;;;;;;;;;;18.24;100.00;99920.30;181117;1266;43645;-57
2023/09/18 05:11:00;;;;;;;;;;;;;;;18.54;100.00;99923.58;181081;1267;57819;-58
2023/09/18 05:15:04;;;;;;;;;;;;;;;18.76;100.00;99917.36;181063;1265;43539;-57
2023/09/18 05:19:05;;;;;;;;;;;;;;;19.07;100.00;99923.23;181065;1267;43399;-57
2023/09/18 05:23:08;;;;;;;;;;;;;;;19.37;100.00;99926.17;181138;1265;42876;-57
2023/09/18 05:27:10;;;;;;;;;;;;;;;19.60;100.00;99924.31;181111;1266;42830;-57
2023/09/18 05:31:11;;;;;;;;;;;;;;;19.78;100.00;99921.14;181108;1264;58208;-57
2023/09/18 05:35:14;;;;;;;;;;;;;;;19.93;100.00;99912.46;181154;1265;42796;-59
2023/09/18 05:39:16;;;;;;;;;;;;;;;19.99;100.00;99906.58;181091;1264;44066;-58
2023/09/18 05:43:18;;;;;;;;;;;;;;;20.11;100.00;99903.42;181060;1267;43803;-58
2023/09/18 05:47:20;;;;;;;;;;;;;;;20.31;100.00;99906.98;181105;1267;42991;-57
2023/09/18 05:51:22;;;;;;;;;;;;;;;20.60;100.00;99899.48;181036;1266;58084;-58
2023/09/18 05:55:24;;;;;;;;;;;;;;;20.85;100.00;99897.30;181036;1265;43222;-58
2023/09/18 05:59:25;;;;;;;;;;;;;;;21.01;100.00;99891.31;181140;1265;43460;-58
2023/09/18 06:03:30;;;;;;;;;;;;;;;21.21;100.00;99893.54;181104;1266;42928;-57
2023/09/18 06:07:32;;;;;;;;;;;;;;;21.37;100.00;99890.17;181031;1267;43671;-57
2023/09/18 06:11:34;;;;;;;;;;;;;;;21.52;100.00;99887.84;181050;1266;57943;-57
2023/09/18 06:15:35;;;;;;;;;;;;;;;21.65;100.00;99885.45;181065;1267;42962;-57
2023/09/18 06:19:37;;;;;;;;;;;;;;;21.76;100.00;99876.63;181099;1266;42894;-57
2023/09/18 06:23:39;;;;;;;;;;;;;;;21.88;100.00;99874.66;181004;1267;42875;-57
2023/09/18 06:27:41;;;;;;;;;;;;;;;21.99;100.00;99872.94;181078;1267;43111;-56
2023/09/18 06:31:43;;;;;;;;;;;;;;;22.15;100.00;99873.64;181063;1264;58486;-58
2023/09/18 06:35:45;;;;;;;;;;;;;;;22.38;100.00;99869.08;181086;1266;43582;-58
2023/09/18 06:39:46;;;;;;;;;;;;;;;22.61;100.00;99869.05;181078;1266;43261;-58
2023/09/18 06:43:48;;;;;;;;;;;;;;;22.75;100.00;99867.32;181112;1266;43496;-57
2023/09/18 06:47:50;;;;;;;;;;;;;;;22.80;100.00;99868.37;181115;1264;42885;-60
2023/09/18 06:51:52;;;;;;;;;;;;;;;22.96;99.96;99866.52;181083;1265;58247;-58
2023/09/18 06:55:54;;;;;;;;;;;;;;;23.02;100.00;99863.90;181084;1266;42928;-59
2023/09/18 06:59:56;;;;;;;;;;;;;;;23.02;100.00;99863.73;181052;1266;43483;-59
2023/09/18 07:03:59;;;;;;;;;;;;;;;23.12;100.00;99864.63;181046;1267;43246;-58
2023/09/18 07:08:01;;;;;;;;;;;;;;;23.30;99.52;99859.60;181042;1265;43486;-58
2023/09/18 07:12:19;;;;;;;;;;;;;;;23.46;98.98;99862.36;181081;1264;57890;-58
2023/09/18 07:16:21;;;;;;;;;;;;;;;23.46;98.92;99857.69;181074;1266;42891;-58
2023/09/18 07:20:23;;;;;;;;;;;;;;;23.59;98.79;99860.75;181055;1266;43496;-57
2023/09/18 07:24:25;;;;;;;;;;;;;;;23.75;96.63;99857.52;181067;1265;42891;-59
2023/09/18 07:28:27;;;;;;;;;;;;;;;23.86;98.24;99848.63;181131;1266;43603;-58
2023/09/18 07:32:28;;;;;;;;;;;;;;;24.20;97.37;99843.45;181095;1266;56886;-57
2023/09/18 07:36:39;;;;;;;;;;;;;;;24.49;95.61;99834.36;180856;1267;251857;-57
2023/09/18 07:40:41;;;;;;;;;;;;;;;24.69;93.40;99824.42;181129;1265;43193;-58
2023/09/18 07:44:42;;;;;;;;;;;;;;;24.85;92.92;99821.50;181131;1264;43567;-58
2023/09/18 07:48:44;;;;;;;;;;;;;;;25.04;92.16;99816.48;181146;1265;42842;-58
2023/09/18 07:52:46;;;;;;;;;;;;;;;25.09;92.07;99821.89;181076;1266;58543;-58
2023/09/18 07:56:47;;;;;;;;;;;;;;;25.10;91.32;99813.20;181099;1266;43528;-58
2023/09/18 08:00:53;;;;;;;;;;;;;;;25.07;90.91;99810.20;181083;1266;43574;-58
2023/09/18 08:04:55;;;;;;;;;;;;;;;25.22;92.14;99812.31;181104;1266;42971;-58
2023/09/18 08:09:05;;;;;;;;;;;;;;;25.41;90.99;99809.48;181046;1265;42911;-59
2023/09/18 08:13:07;;;;;;;;;;;;;;;25.63;89.60;99798.69;181098;1265;57945;-58
2023/09/18 08:17:08;;;;;;;;;;;;;;;25.87;88.52;99788.73;181128;1266;42840;-57
2023/09/18 08:21:13;;;;;;;;;;;;;;;26.08;87.97;99783.36;181102;1267;43620;-59
2023/09/18 08:25:15;;;;;;;;;;;;;;;26.31;87.89;99775.23;181047;1266;43022;-60
2023/09/18 08:29:17;;;;;;;;;;;;;;;26.39;82.13;99775.48;181098;1266;42856;-59
2023/09/18 08:33:20;;;;;;;;;;;;;;;26.43;81.85;99776.91;181063;1265;58753;-59
2023/09/18 08:37:26;;;;;;;;;;;;;;;26.58;80.20;99772.63;181098;1266;42985;-59
2023/09/18 08:41:28;;;;;;;;;;;;;;;26.74;80.94;99768.37;181082;1267;43247;-59
2023/09/18 08:45:42;;;;;;;;;;;;;;;26.98;81.03;99768.59;181067;1266;42895;-58
2023/09/18 08:49:44;;;;;;;;;;;;;;;27.23;79.12;99764.82;181133;1266;42876;-59
2023/09/18 08:53:46;;;;;;;;;;;;;;;27.23;77.76;99756.03;181110;1266;57850;-59
2023/09/18 08:57:48;;;;;;;;;;;;;;;27.22;76.83;99752.09;181121;1264;43077;-59
2023/09/18 09:01:50;;;;;;;;;;;;;;;27.27;76.06;99745.52;181098;1265;43567;-59
2023/09/18 09:05:51;;;;;;;;;;;;;;;27.47;78.30;99741.77;181096;1266;43016;-58
2023/09/18 09:09:53;;;;;;;;;;;;;;;27.53;74.52;99741.54;181095;1266;42872;-59
2023/09/18 09:14:21;;;;;;;;;;;;;;;27.53;76.02;99737.92;181118;1264;58114;-59
2023/09/18 09:18:24;;;;;;;;;;;;;;;27.62;76.73;99731.05;181148;1266;42877;-58
2023/09/18 09:22:25;;;;;;;;;;;;;;;27.74;75.66;99721.88;181160;1264;43735;-60
2023/09/18 09:26:27;;;;;;;;;;;;;;;27.88;73.56;99714.17;181090;1267;42941;-59
2023/09/18 09:30:30;;;;;;;;;;;;;;;27.96;73.04;99705.73;181104;1266;43489;-59
2023/09/18 09:34:31;;;;;;;;;;;;;;;28.09;73.69;99701.56;181049;1266;58044;-59
2023/09/18 09:38:34;;;;;;;;;;;;;;;28.26;73.46;99694.86;181097;1266;43487;-59
2023/09/18 09:42:40;;;;;;;;;;;;;;;28.41;72.58;99693.80;181089;1265;43002;-58
2023/09/18 09:46:46;;;;;;;;;;;;;;;28.45;69.67;99693.02;181092;1266;43006;-59
2023/09/18 09:50:48;;;;;;;;;;;;;;;28.62;68.86;99688.25;181123;1264;42822;-59
2023/09/18 09:54:50;;;;;;;;;;;;;;;28.71;68.07;99696.02;181113;1264;57814;-59
2023/09/18 09:59:08;;;;;;;;;;;;;;;28.82;70.95;99692.46;181090;1267;43454;-59
2023/09/18 10:03:10;;;;;;;;;;;;;;;28.94;69.55;99689.95;181090;1266;43458;-59
2023/09/18 10:07:13;;;;;;;;;;;;;;;29.04;69.62;99687.91;181113;1265;42823;-59
2023/09/18 10:11:16;;;;;;;;;;;;;;;29.07;65.94;99685.85;181149;1265;43171;-59
2023/09/18 10:15:19;;;;;;;;;;;;;;;28.98;67.42;99686.30;181115;1266;57820;-58
2023/09/18 10:19:25;;;;;;;;;;;;;;;28.95;66.12;99690.94;181119;1266;42963;-60
2023/09/18 10:23:34;;;;;;;;;;;;;;;29.06;67.89;99686.84;181111;1266;43489;-59
2023/09/18 10:27:38;;;;;;;;;;;;;;;29.12;66.21;99675.61;181077;1265;43597;-60
2023/09/18 10:31:43;;;;;;;;;;;;;;;29.16;64.10;99667.41;181135;1265;43495;-59
2023/09/18 10:35:47;;;;;;;;;;;;;;;29.13;66.31;99669.04;181140;1265;57932;-59
2023/09/18 10:39:49;;;;;;;;;;;;;;;29.21;64.24;99661.14;181180;1266;42890;-59
2023/09/18 10:43:53;;;;;;;;;;;;;;;29.17;66.67;99659.15;181101;1266;42975;-60
2023/09/18 10:47:56;;;;;;;;;;;;;;;29.18;65.13;99655.54;181091;1265;43876;-60
2023/09/18 10:51:58;;;;;;;;;;;;;;;29.24;65.21;99646.92;181133;1266;42855;-61
2023/09/18 10:56:01;;;;;;;;;;;;;;;29.34;66.52;99646.53;181046;1267;59233;-59
2023/09/18 11:00:13;;;;;;;;;;;;;;;29.48;65.80;99644.70;181128;1265;43471;-59
2023/09/18 11:04:20;;;;;;;;;;;;;;;29.60;64.70;99637.34;181069;1266;43492;-60
2023/09/18 11:08:34;;;;;;;;;;;;;;;29.78;66.44;99630.39;181085;1265;42920;-59
2023/09/18 11:12:44;;;;;;;;;;;;;;;29.89;64.21;99620.55;181064;1266;42816;-60
2023/09/18 11:16:48;;;;;;;;;;;;;;;30.02;63.61;99612.02;181135;1266;57929;-59
2023/09/18 11:21:11;;;;;;;;;;;;;;;30.02;61.48;99605.45;181098;1265;43484;-59
2023/09/18 11:25:34;;;;;;;;;;;;;;;29.99;62.56;99595.03;181117;1265;42758;-59
2023/09/18 11:29:36;;;;;;;;;;;;;;;29.97;61.53;99593.38;181092;1264;43533;-57
2023/09/18 11:33:39;;;;;;;;;;;;;;;30.00;60.55;99590.08;181154;1266;43449;-61
2023/09/18 11:37:43;;;;;;;;;;;;;;;30.02;61.46;99586.20;181140;1264;58108;-57
2023/09/18 11:41:44;;;;;;;;;;;;;;;30.06;62.72;99587.70;181137;1265;43531;-57
2023/09/18 11:45:55;;;;;;;;;;;;;;;30.09;61.90;99581.23;181090;1266;42778;-58
2023/09/18 11:49:58;;;;;;;;;;;;;;;30.15;61.62;99575.09;181126;1267;43317;-57
2023/09/18 11:54:17;;;;;;;;;;;;;;;30.16;60.05;99570.75;181129;1264;42765;-58
2023/09/18 11:58:23;;;;;;;;;;;;;;;30.25;62.35;99564.73;181070;1266;58154;-58
2023/09/18 12:02:27;;;;;;;;;;;;;;;30.32;62.36;99564.27;181091;1266;43472;-58
2023/09/18 12:06:29;;;;;;;;;;;;;;;30.40;60.71;99561.14;181163;1266;43428;-59
2023/09/18 12:10:32;;;;;;;;;;;;;;;30.45;60.32;99558.66;181132;1264;42942;-60
2023/09/18 12:14:33;;;;;;;;;;;;;;;30.49;60.86;99556.91;181146;1265;42816;-59
2023/09/18 12:18:37;;;;;;;;;;;;;;;30.45;59.38;99555.65;181099;1266;59611;-59
2023/09/18 12:22:39;;;;;;;;;;;;;;;30.31;61.52;99546.71;181111;1265;43578;-59
2023/09/18 12:26:41;;;;;;;;;;;;;;;30.30;61.08;99540.91;181124;1267;42867;-59
2023/09/18 12:30:43;;;;;;;;;;;;;;;30.31;61.52;99540.58;181042;1267;42829;-59
2023/09/18 12:34:46;;;;;;;;;;;;;;;30.23;62.14;99535.10;181172;1265;42815;-59
2023/09/18 12:38:58;;;;;;;;;;;;;;;30.20;63.90;99543.77;181119;1264;57053;-60
2023/09/18 12:42:59;;;;;;;;;;;;;;;30.00;62.97;99537.83;181124;1266;43519;-59
2023/09/18 12:47:03;;;;;;;;;;;;;;;29.95;64.16;99537.83;181044;1266;43171;-60
2023/09/18 12:51:22;;;;;;;;;;;;;;;29.92;64.70;99532.77;181110;1267;42995;-59
2023/09/18 12:55:24;;;;;;;;;;;;;;;29.83;65.70;99529.70;181142;1267;42737;-60
2023/09/18 12:59:30;;;;;;;;;;;;;;;29.88;66.65;99523.68;181068;1265;57846;-60
2023/09/18 13:03:32;;;;;;;;;;;;;;;29.88;66.23;99526.14;181128;1266;43015;-61
2023/09/18 13:07:43;;;;;;;;;;;;;;;29.83;66.96;99527.06;181156;1266;43461;-61
2023/09/18 13:11:57;;;;;;;;;;;;;;;29.61;67.43;99524.58;181120;1266;42877;-62
2023/09/18 13:16:00;;;;;;;;;;;;;;;29.55;68.24;99523.86;181060;1266;42845;-61
2023/09/18 13:20:06;;;;;;;;;;;;;;;29.58;66.66;99518.05;181151;1266;57963;-61
2023/09/18 13:24:32;;;;;;;;;;;;;;;29.66;66.92;99523.10;181222;1263;43096;-59
2023/09/18 13:28:35;;;;;;;;;;;;;;;29.71;67.22;99525.36;181022;1266;42743;-61
2023/09/18 13:32:39;;;;;;;;;;;;;;;29.66;67.94;99513.36;180979;1266;43450;-63
2023/09/18 13:36:42;;;;;;;;;;;;;;;29.59;68.46;99509.78;181001;1267;43320;-63
2023/09/18 13:40:45;;;;;;;;;;;;;;;29.47;68.58;99505.27;180999;1267;57926;-62
2023/09/18 13:44:46;;;;;;;;;;;;;;;29.49;69.17;99505.55;181040;1265;42800;-63
2023/09/18 13:48:52;;;;;;;;;;;;;;;29.57;70.26;99504.18;181055;1266;42929;-62
2023/09/18 13:52:54;;;;;;;;;;;;;;;29.69;70.20;99495.22;180974;1266;43495;-63
2023/09/18 13:56:58;;;;;;;;;;;;;;;29.77;69.72;99490.40;180999;1266;42821;-63
2023/09/18 14:01:00;;;;;;;;;;;;;;;29.82;69.16;99484.58;181006;1266;58143;-63
2023/09/18 14:05:03;;;;;;;;;;;;;;;29.78;68.36;99480.31;180961;1266;42846;-62
2023/09/18 14:09:07;;;;;;;;;;;;;;;29.80;67.35;99480.70;180979;1267;42814;-62
2023/09/18 14:13:08;;;;;;;;;;;;;;;29.79;67.23;99470.56;180973;1267;42823;-63
2023/09/18 14:17:10;;;;;;;;;;;;;;;29.77;68.11;99464.91;180925;1267;42854;-62
2023/09/18 14:21:14;;;;;;;;;;;;;;;29.75;69.03;99464.41;180973;1266;58253;-63
2023/09/18 14:25:16;;;;;;;;;;;;;;;29.76;69.07;99457.46;181013;1266;42889;-63
2023/09/18 14:29:18;;;;;;;;;;;;;;;29.70;67.86;99450.66;181043;1265;43382;-62
2023/09/18 14:33:23;;;;;;;;;;;;;;;29.74;70.07;99452.20;180994;1269;43504;-62
2023/09/18 14:37:25;;;;;;;;;;;;;;;29.73;69.36;99449.63;181013;1266;43489;-62
2023/09/18 14:41:27;;;;;;;;;;;;;;;29.69;68.30;99443.83;181044;1266;57935;-58
2023/09/18 14:45:28;;;;;;;;;;;;;;;29.60;68.51;99443.92;180977;1267;42961;-58
2023/09/18 14:49:30;;;;;;;;;;;;;;;29.49;69.08;99446.87;181022;1266;42890;-58
2023/09/18 14:53:31;;;;;;;;;;;;;;;29.38;69.17;99442.17;181041;1266;42862;-58
2023/09/18 15:02:05;;;;;;;;;;;;;;;29.12;69.66;99440.20;180991;1266;57995;-58
2023/09/18 15:06:19;;;;;;;;;;;;;;;29.09;68.74;99441.67;181057;1266;43044;-58
2023/09/18 15:10:21;;;;;;;;;;;;;;;29.03;69.93;99438.88;180978;1266;43115;-58
2023/09/18 15:14:22;;;;;;;;;;;;;;;28.87;71.69;99444.63;180988;1267;43304;-58
2023/09/18 15:18:25;;;;;;;;;;;;;;;28.69;73.14;99439.43;181018;1267;43579;-56
2023/09/18 15:22:26;;;;;;;;;;;;;;;28.48;73.66;99437.76;180998;1266;58065;-56
2023/09/18 15:26:28;;;;;;;;;;;;;;;28.25;74.76;99437.69;181026;1267;42956;-56
2023/09/18 15:30:35;;;;;;;;;;;;;;;28.08;75.67;99433.84;181039;1266;42926;-56
2023/09/18 15:34:36;;;;;;;;;;;;;;;27.88;76.88;99434.23;180991;1267;43461;-56
2023/09/18 15:38:38;;;;;;;;;;;;;;;27.74;77.19;99433.21;181027;1266;42859;-56
2023/09/18 15:42:39;;;;;;;;;;;;;;;27.54;78.58;99431.89;181015;1266;58132;-56
2023/09/18 15:46:41;;;;;;;;;;;;;;;27.41;79.80;99430.72;181072;1266;42917;-55
2023/09/18 15:50:44;;;;;;;;;;;;;;;27.25;80.87;99425.92;181039;1266;42838;-56
2023/09/18 15:54:45;;;;;;;;;;;;;;;27.14;81.73;99424.77;181044;1266;43507;-56
2023/09/18 15:58:48;;;;;;;;;;;;;;;27.06;82.07;99419.77;181059;1266;43604;-56
2023/09/18 16:08:00;;;;;;;;;;;;;;;26.89;82.24;99414.24;180998;1267;43013;-58
2023/09/18 16:21:00;;;;;;;;;;;;;;;26.69;84.95;99422.60;177443;1264;43654;-57
2023/09/18 16:25:27;;;;;;;;;;;;;;;26.61;85.57;99424.58;181254;1264;57898;-56
2023/09/18 16:29:29;;;;;;;;;;;;;;;26.55;85.15;99427.79;181214;1267;43810;-56
2023/09/18 16:33:50;;;;;;;;;;;;;;;26.49;85.11;99425.14;181230;1264;42793;-56
2023/09/18 16:37:51;;;;;;;;;;;;;;;26.38;84.65;99424.17;181265;1264;43483;-57
2023/09/18 16:41:53;;;;;;;;;;;;;;;26.35;84.12;99423.77;181240;1266;42837;-58
2023/09/18 16:46:04;;;;;;;;;;;;;;;26.27;83.97;99423.00;181194;1263;58035;-60
2023/09/18 16:55:17;;;;;;;;;;;;;;;26.05;84.04;99420.90;172162;1266;43432;-60
2023/09/18 16:59:19;;;;;;;;;;;;;;;25.91;84.32;99417.36;181200;1264;43518;-61
2023/09/18 17:03:21;;;;;;;;;;;;;;;25.81;84.76;99415.58;181168;1263;42833;-59
2023/09/18 17:07:23;;;;;;;;;;;;;;;25.68;85.05;99416.09;181161;1264;58113;-59
2023/09/18 17:11:25;;;;;;;;;;;;;;;25.57;85.93;99416.02;181172;1267;43685;-59
2023/09/18 17:15:26;;;;;;;;;;;;;;;25.48;86.12;99411.98;181152;1264;43218;-60
2023/09/18 17:19:28;;;;;;;;;;;;;;;25.36;87.22;99413.17;181224;1264;42957;-63
2023/09/18 17:23:30;;;;;;;;;;;;;;;25.24;87.06;99415.54;181132;1264;43264;-62
2023/09/18 17:27:34;;;;;;;;;;;;;;;25.17;87.26;99416.48;181184;1265;57279;-62
2023/09/18 17:31:36;;;;;;;;;;;;;;;25.16;87.11;99417.28;181106;1265;42888;-62
2023/09/18 17:35:38;;;;;;;;;;;;;;;25.16;86.52;99411.46;181233;1267;43208;-62
2023/09/18 17:39:42;;;;;;;;;;;;;;;25.16;84.86;99414.30;181102;1265;43622;-63
2023/09/18 17:43:44;;;;;;;;;;;;;;;25.02;84.66;99420.09;181215;1264;43706;-63
2023/09/18 17:52:45;;;;;;;;;;;;;;;24.70;89.87;99421.06;181154;1257;43550;-59
2023/09/18 17:56:48;;;;;;;;;;;;;;;24.66;89.31;99416.69;181173;1263;43395;-59
2023/09/18 18:00:52;;;;;;;;;;;;;;;24.65;89.50;99412.03;181136;1263;43276;-59
2023/09/18 18:04:54;;;;;;;;;;;;;;;24.53;90.54;99407.89;181116;1264;42915;-60
2023/09/18 18:08:55;;;;;;;;;;;;;;;24.44;90.82;99408.40;181137;1263;58026;-59
2023/09/18 18:12:57;;;;;;;;;;;;;;;24.35;91.44;99407.79;181165;1263;42850;-59
2023/09/18 18:17:02;;;;;;;;;;;;;;;24.17;93.22;99401.90;181184;1264;42880;-58
2023/09/18 18:21:03;;;;;;;;;;;;;;;24.05;93.68;99397.97;181205;1263;42865;-59
2023/09/18 18:25:05;;;;;;;;;;;;;;;23.93;94.34;99401.73;181191;1264;43473;-58
2023/09/18 18:29:07;;;;;;;;;;;;;;;23.87;94.51;99407.79;181189;1264;58094;-60
2023/09/18 18:33:09;;;;;;;;;;;;;;;23.78;95.27;99408.58;181131;1264;43969;-59
2023/09/18 18:37:11;;;;;;;;;;;;;;;23.69;95.82;99400.55;181202;1263;43544;-59
2023/09/18 18:41:12;;;;;;;;;;;;;;;23.64;96.26;99402.60;181256;1262;43230;-59
2023/09/18 18:45:15;;;;;;;;;;;;;;;23.61;96.31;99406.92;181227;1263;43343;-60
2023/09/18 18:49:20;;;;;;;;;;;;;;;23.60;96.44;99409.89;181211;1263;58574;-60
2023/09/18 18:53:22;;;;;;;;;;;;;;;23.54;97.19;99419.99;181151;1264;43394;-59
2023/09/18 19:01:58;;;;;;;;;;;;;;;23.39;95.67;99443.05;181151;1264;42855;-60
2023/09/18 19:06:07;;;;;;;;;;;;;;;23.35;96.29;99441.33;181212;1262;42829;-59
2023/09/18 19:10:09;;;;;;;;;;;;;;;23.29;96.18;99433.45;181143;1263;58448;-59
2023/09/18 19:14:11;;;;;;;;;;;;;;;23.23;96.81;99427.49;181174;1264;43242;-59
2023/09/18 19:22:48;;;;;;;;;;;;;;;23.09;96.76;99424.33;181005;1265;43508;-59
2023/09/18 19:26:50;;;;;;;;;;;;;;;23.01;98.33;99423.30;181037;1265;43248;-60
2023/09/18 19:35:22;;;;;;;;;;;;;;;22.90;100.00;99420.52;180644;1270;193243;-59
2023/09/18 19:39:24;;;;;;;;;;;;;;;22.95;100.00;99424.40;180790;1270;43478;-59
2023/09/18 19:43:25;;;;;;;;;;;;;;;23.02;100.00;99422.41;180547;1272;43153;-59
2023/09/18 19:47:27;;;;;;;;;;;;;;;23.04;100.00;99415.23;179927;1275;42883;-59
2023/09/18 19:51:29;;;;;;;;;;;;;;;23.06;100.00;99413.36;179320;1278;58269;-59
2023/09/18 19:55:35;;;;;;;;;;;;;;;23.11;100.00;99413.80;179543;1278;42910;-59
2023/09/18 19:59:36;;;;;;;;;;;;;;;23.18;100.00;99410.36;179097;1278;43221;-60
2023/09/18 20:03:38;;;;;;;;;;;;;;;23.28;100.00;99408.37;178637;1283;43014;-59
2023/09/18 20:07:41;;;;;;;;;;;;;;;23.39;99.98;99403.08;177607;1287;42803;-59
2023/09/18 20:11:43;;;;;;;;;;;;;;;23.49;99.47;99404.29;177282;1291;58275;-60
2023/09/18 20:15:44;;;;;;;;;;;;;;;23.60;99.00;99406.02;177361;1291;42866;-59
2023/09/18 20:19:46;;;;;;;;;;;;;;;23.69;98.36;99408.70;177234;1291;43424;-60
2023/09/18 20:24:14;;;;;;;;;;;;;;;23.80;97.97;99418.33;177387;1291;43554;-60
2023/09/18 20:28:17;;;;;;;;;;;;;;;23.80;98.72;99440.02;176692;1293;43445;-60
2023/09/18 20:32:19;;;;;;;;;;;;;;;23.85;98.73;99443.70;176478;1297;58060;-59
2023/09/18 20:36:23;;;;;;;;;;;;;;;23.69;100.00;99446.38;176251;1299;42919;-59
2023/09/18 20:40:25;;;;;;;;;;;;;;;23.73;99.89;99443.36;176339;1298;45366;-60
2023/09/18 20:44:26;;;;;;;;;;;;;;;23.77;99.72;99450.30;176445;1298;43747;-59
2023/09/18 20:48:30;;;;;;;;;;;;;;;23.84;98.93;99458.24;176372;1299;42866;-59
2023/09/18 20:53:02;;;;;;;;;;;;;;;23.88;96.72;99455.85;176426;1298;57980;-60
2023/09/18 20:57:05;;;;;;;;;;;;;;;23.72;96.70;99470.82;176421;1298;43561;-60
2023/09/18 21:01:07;;;;;;;;;;;;;;;23.41;97.22;99477.89;176424;1298;43576;-59
2023/09/18 21:05:08;;;;;;;;;;;;;;;23.09;97.09;99478.13;176293;1299;42898;-61
2023/09/18 21:09:17;;;;;;;;;;;;;;;22.54;100.00;99487.59;176428;1298;42893;-59
2023/09/18 21:13:19;;;;;;;;;;;;;;;22.19;100.00;99504.65;176386;1298;58605;-60
2023/09/18 21:17:20;;;;;;;;;;;;;;;21.84;100.00;99521.38;176370;1299;42923;-61
2023/09/18 21:21:22;;;;;;;;;;;;;;;21.45;100.00;99522.25;176368;1299;44027;-60
2023/09/18 21:25:23;;;;;;;;;;;;;;;21.07;100.00;99523.70;176152;1299;42936;-59
2023/09/18 21:29:25;;;;;;;;;;;;;;;20.83;100.00;99517.08;175902;1305;43424;-60
2023/09/18 21:33:29;;;;;;;;;;;;;;;20.59;100.00;99503.44;175869;1306;58083;-59
2023/09/18 21:37:31;;;;;;;;;;;;;;;20.55;100.00;99495.81;175906;1305;42997;-59